Time;durP1;ratioP1;P1;durP2;ratioP2;P2;SDS_P1;SDS_P2;PMS_P1;PMS_P2;Temp;Humidity;BMP_temperature;BMP_pressure;BME280_temperature;BME280_humidity;BME280_pressure;Samples;Min_cycle;Max_cycle;Signal;HPM_P1;HPM_P2
2023/02/14 00:01:45;;;;;;;51.50;16.20;;;4.50;94.30;;;;;;4998469;28;87333;-73
2023/02/14 00:04:11;;;;;;;46.55;16.48;;;4.50;94.40;;;;;;4985830;28;88684;-74
2023/02/14 00:06:38;;;;;;;46.13;15.55;;;4.50;94.30;;;;;;4978529;28;87893;-73
2023/02/14 00:09:05;;;;;;;47.60;16.52;;;4.40;94.30;;;;;;4977763;28;88384;-73
2023/02/14 00:11:31;;;;;;;47.15;16.60;;;4.40;94.50;;;;;;4995473;28;88855;-75
2023/02/14 00:16:55;;;;;;;49.95;16.00;;;4.40;94.50;;;;;;4965838;28;87740;-75
2023/02/14 00:19:22;;;;;;;50.75;16.52;;;4.40;94.70;;;;;;4978129;28;88287;-73
2023/02/14 00:21:48;;;;;;;47.58;15.43;;;4.30;94.70;;;;;;4977138;28;87940;-73
2023/02/14 00:24:20;;;;;;;44.95;14.45;;;4.30;94.90;;;;;;4993855;28;87201;-73
2023/02/14 00:26:46;;;;;;;41.20;14.90;;;4.20;94.90;;;;;;4990296;28;86708;-74
2023/02/14 00:29:14;;;;;;;45.78;15.13;;;4.20;95.10;;;;;;4978989;28;88471;-75
2023/02/14 00:31:41;;;;;;;37.75;14.00;;;4.30;94.90;;;;;;4979904;28;87499;-74
2023/02/14 00:34:08;;;;;;;38.75;14.27;;;4.30;94.70;;;;;;4980327;28;88414;-73
2023/02/14 00:36:34;;;;;;;44.17;14.88;;;4.40;94.60;;;;;;4998001;28;87294;-73
2023/02/14 00:39:09;;;;;;;38.38;13.85;;;4.30;94.50;;;;;;4993564;28;87507;-73
2023/02/14 00:41:34;;;;;;;40.35;13.60;;;4.40;94.30;;;;;;4977400;28;87503;-71
2023/02/14 00:44:01;;;;;;;43.08;14.90;;;4.30;94.40;;;;;;4978532;28;87826;-72
2023/02/14 00:46:27;;;;;;;46.17;14.68;;;4.30;94.40;;;;;;4977742;28;88661;-70
2023/02/14 00:48:52;;;;;;;38.03;13.90;;;4.30;94.20;;;;;;4978798;28;88255;-71
2023/02/14 00:51:20;;;;;;;44.28;15.57;;;4.30;94.50;;;;;;4976779;28;87979;-73
2023/02/14 00:53:48;;;;;;;41.08;14.77;;;4.30;94.50;;;;;;4977855;28;87037;-71
2023/02/14 00:56:14;;;;;;;48.00;15.55;;;4.40;94.40;;;;;;4989594;28;87500;-70
2023/02/14 00:58:40;;;;;;;41.13;15.25;;;4.30;94.10;;;;;;4979788;28;88662;-72
2023/02/14 01:01:07;;;;;;;46.33;15.52;;;4.40;94.30;;;;;;4980938;28;88859;-70
2023/02/14 01:03:34;;;;;;;42.28;14.88;;;4.40;94.10;;;;;;4977488;28;87158;-71
2023/02/14 01:06:00;;;;;;;43.22;15.85;;;4.40;94.10;;;;;;4979504;28;87278;-73
2023/02/14 01:08:25;;;;;;;49.92;15.05;;;4.30;94.20;;;;;;4976550;28;88192;-72
2023/02/14 01:10:51;;;;;;;50.10;16.15;;;4.20;94.30;;;;;;4990084;28;88708;-70
2023/02/14 01:13:18;;;;;;;50.47;15.05;;;4.20;94.50;;;;;;4997417;28;87323;-71
2023/02/14 01:15:46;;;;;;;48.85;15.52;;;4.20;94.70;;;;;;4996184;28;86651;-71
2023/02/14 01:18:18;;;;;;;60.08;18.58;;;4.20;94.90;;;;;;4977154;28;87312;-74
2023/02/14 01:20:44;;;;;;;61.13;18.63;;;4.20;94.70;;;;;;4975570;28;87318;-74
2023/02/14 01:23:10;;;;;;;63.63;19.63;;;4.20;94.90;;;;;;4976862;28;88377;-75
2023/02/14 01:25:37;;;;;;;59.40;19.55;;;4.10;94.70;;;;;;4977794;28;87365;-71
2023/02/14 01:28:03;;;;;;;57.38;18.73;;;4.00;94.90;;;;;;4986040;28;87575;-71
2023/02/14 01:30:29;;;;;;;59.42;19.52;;;4.00;95.30;;;;;;4979160;28;87484;-72
2023/02/14 01:32:55;;;;;;;60.75;19.98;;;4.00;95.50;;;;;;4975258;28;87304;-71
2023/02/14 01:35:20;;;;;;;59.80;20.75;;;4.00;95.60;;;;;;4990832;28;87517;-71
2023/02/14 01:37:46;;;;;;;61.25;19.73;;;3.90;95.80;;;;;;4996674;28;87457;-70
2023/02/14 01:40:13;;;;;;;61.92;19.58;;;4.00;96.10;;;;;;4985737;28;87277;-73
2023/02/14 01:42:39;;;;;;;70.40;20.42;;;4.00;96.10;;;;;;4992262;28;87449;-73
2023/02/14 01:45:20;;;;;;;60.78;19.80;;;4.00;96.00;;;;;;4990649;28;87548;-73
2023/02/14 01:47:50;;;;;;;57.60;19.02;;;4.00;96.00;;;;;;4995965;28;88403;-72
2023/02/14 01:50:24;;;;;;;63.97;20.58;;;4.10;95.70;;;;;;4980537;28;88306;-74
2023/02/14 01:52:58;;;;;;;52.17;18.23;;;4.10;95.80;;;;;;4976888;28;87435;-73
2023/02/14 01:55:27;;;;;;;57.30;18.35;;;4.20;95.40;;;;;;4979206;28;87519;-71
2023/02/14 01:58:01;;;;;;;59.75;18.67;;;4.20;95.10;;;;;;4976784;28;88704;-72
2023/02/14 02:03:14;;;;;;;50.03;17.27;;;4.20;95.00;;;;;;4993526;28;87492;-73
2023/02/14 02:05:46;;;;;;;56.70;17.38;;;4.20;95.20;;;;;;4978635;28;86672;-72
2023/02/14 02:08:12;;;;;;;56.13;17.23;;;4.10;94.70;;;;;;4977652;28;88176;-72
2023/02/14 02:10:37;;;;;;;54.53;18.30;;;4.00;94.80;;;;;;4976303;28;88102;-72
2023/02/14 02:13:06;;;;;;;63.25;17.48;;;4.00;95.20;;;;;;4979344;28;88125;-72
2023/02/14 02:15:48;;;;;;;54.60;18.08;;;4.00;95.40;;;;;;4976631;28;87018;-72
2023/02/14 02:18:27;;;;;;;130.07;20.13;;;4.00;95.30;;;;;;4985636;28;87734;-72
2023/02/14 02:21:31;;;;;;;54.22;17.83;;;4.00;94.80;;;;;;4991032;28;88121;-71
2023/02/14 02:24:11;;;;;;;62.28;18.27;;;4.00;95.40;;;;;;4996278;28;87275;-73
2023/02/14 02:27:02;;;;;;;48.17;17.48;;;4.00;95.20;;;;;;4996895;28;87847;-70
2023/02/14 02:30:03;;;;;;;46.05;16.30;;;3.90;95.30;;;;;;4990026;28;88401;-72
2023/02/14 02:32:58;;;;;;;48.85;16.13;;;3.90;95.70;;;;;;4976978;28;88549;-70
2023/02/14 02:36:04;;;;;;;43.55;15.80;;;3.90;95.40;;;;;;4970536;28;87797;-71
2023/02/14 02:38:47;;;;;;;47.45;16.35;;;3.80;95.40;;;;;;4973481;28;87337;-73
2023/02/14 02:41:27;;;;;;;41.40;14.85;;;3.80;95.60;;;;;;4983692;28;88354;-73
2023/02/14 02:44:02;;;;;;;55.45;15.18;;;3.70;96.00;;;;;;4989870;28;88958;-70
2023/02/14 02:46:47;;;;;;;52.53;16.13;;;3.80;95.60;;;;;;4982033;28;86967;-71
2023/02/14 02:55:26;;;;;;;43.20;13.88;;;3.70;94.90;;;;;;4983186;28;87678;-71
2023/02/14 02:57:54;;;;;;;50.35;15.43;;;3.50;95.00;;;;;;4997977;28;87284;-72
2023/02/14 03:00:22;;;;;;;48.60;14.88;;;3.20;95.60;;;;;;4981517;28;86687;-72
2023/02/14 03:05:36;;;;;;;42.03;14.43;;;3.20;96.20;;;;;;4971252;28;87309;-73
2023/02/14 03:08:03;;;;;;;55.30;17.05;;;3.10;96.70;;;;;;4980983;28;89724;-73
2023/02/14 03:10:34;;;;;;;47.75;15.05;;;3.10;97.10;;;;;;4986159;28;87493;-74
2023/02/14 03:13:11;;;;;;;43.78;15.50;;;3.10;97.30;;;;;;4979170;28;88222;-73
2023/02/14 03:15:59;;;;;;;46.45;15.98;;;3.20;97.50;;;;;;4977197;28;87369;-73
2023/02/14 03:18:43;;;;;;;51.10;16.13;;;3.30;97.30;;;;;;4966806;28;87296;-73
2023/02/14 03:21:40;;;;;;;42.92;15.15;;;3.30;97.00;;;;;;4989096;28;87010;-74
2023/02/14 03:24:44;;;;;;;37.33;13.80;;;3.40;97.00;;;;;;4978940;28;87612;-73
2023/02/14 03:27:22;;;;;;;;;;;3.50;96.60;;;;;;4978908;28;87753;-74
2023/02/14 03:30:17;;;;;;;47.33;14.50;;;3.50;96.30;;;;;;4980871;28;87444;-73
2023/02/14 03:33:13;;;;;;;44.40;14.48;;;3.60;96.30;;;;;;4981340;28;87378;-74
2023/02/14 03:35:53;;;;;;;43.53;14.05;;;3.60;96.40;;;;;;4972023;28;89666;-73
2023/02/14 03:38:31;;;;;;;41.47;15.18;;;3.60;96.10;;;;;;4988011;28;88685;-73
2023/02/14 03:41:03;;;;;;;48.63;16.13;;;3.70;95.80;;;;;;4983641;28;87311;-73
2023/02/14 03:43:40;;;;;;;41.63;14.20;;;3.80;95.80;;;;;;4987837;28;88478;-73
2023/02/14 03:46:09;;;;;;;50.90;15.80;;;3.80;95.50;;;;;;4979105;28;88210;-74
2023/02/14 03:48:37;;;;;;;48.88;16.25;;;3.80;95.40;;;;;;4978361;28;87836;-74
2023/02/14 03:51:05;;;;;;;56.40;15.85;;;3.80;95.50;;;;;;4978674;28;87362;-72
2023/02/14 03:53:34;;;;;;;48.53;15.10;;;3.90;95.50;;;;;;4978946;28;86715;-73
2023/02/14 03:56:16;;;;;;;51.92;15.45;;;3.90;95.30;;;;;;4983787;28;88441;-72
2023/02/14 03:58:47;;;;;;;55.63;15.63;;;3.90;95.10;;;;;;4978924;28;87435;-72
2023/02/14 04:01:21;;;;;;;48.00;16.25;;;3.90;95.10;;;;;;4978065;28;88322;-72
2023/02/14 04:03:48;;;;;;;41.67;14.55;;;3.80;95.70;;;;;;4978750;28;87486;-72
2023/02/14 04:06:17;;;;;;;48.95;13.82;;;3.90;95.50;;;;;;4975707;28;89587;-72
2023/02/14 04:08:42;;;;;;;40.97;13.45;;;3.80;95.30;;;;;;4977545;28;87855;-72
2023/02/14 04:11:08;;;;;;;44.08;14.23;;;3.80;95.10;;;;;;4979529;28;87437;-73
2023/02/14 04:13:35;;;;;;;44.53;13.63;;;3.80;95.30;;;;;;4997329;28;87229;-72
2023/02/14 04:16:01;;;;;;;50.40;14.55;;;3.70;95.50;;;;;;4989516;28;88173;-71
2023/02/14 04:21:11;;;;;;;49.55;14.90;;;3.70;95.90;;;;;;4978478;28;87006;-71
2023/02/14 04:23:37;;;;;;;43.17;14.15;;;3.80;95.70;;;;;;4978797;28;87391;-72
2023/02/14 04:26:03;;;;;;;40.08;13.68;;;3.70;95.60;;;;;;4977429;28;88893;-72
2023/02/14 04:28:30;;;;;;;63.85;15.50;;;3.70;95.80;;;;;;4983460;28;87819;-71
2023/02/14 04:30:55;;;;;;;76.10;15.30;;;3.80;95.10;;;;;;4979007;28;87825;-74
2023/02/14 04:33:21;;;;;;;66.85;16.02;;;3.80;94.90;;;;;;4978708;28;87120;-71
2023/02/14 04:35:50;;;;;;;92.40;15.40;;;3.60;95.20;;;;;;4982544;28;87275;-72
2023/02/14 04:38:15;;;;;;;94.13;15.85;;;3.50;95.30;;;;;;4997962;28;87989;-72
2023/02/14 04:40:41;;;;;;;80.50;14.70;;;3.30;95.70;;;;;;4988915;28;87566;-72
2023/02/14 04:43:07;;;;;;;81.80;14.57;;;3.30;96.00;;;;;;4995398;28;86625;-71
2023/02/14 04:45:33;;;;;;;57.70;14.38;;;3.30;95.90;;;;;;4993950;28;88064;-72
2023/02/14 04:47:58;;;;;;;47.42;14.15;;;3.20;96.00;;;;;;4977386;28;88320;-72
2023/02/14 04:50:24;;;;;;;61.45;13.60;;;3.10;96.50;;;;;;4976703;28;88500;-72
2023/02/14 04:52:51;;;;;;;51.33;13.25;;;3.00;97.00;;;;;;4977598;28;87316;-74
2023/02/14 04:55:17;;;;;;;103.97;14.93;;;3.10;96.90;;;;;;4979362;28;88741;-72
2023/02/14 04:57:43;;;;;;;134.50;16.13;;;3.10;96.60;;;;;;4977578;28;87601;-72
2023/02/14 05:00:09;;;;;;;59.17;13.88;;;3.00;96.80;;;;;;4991464;28;87312;-72
2023/02/14 05:02:35;;;;;;;49.05;12.95;;;3.10;96.90;;;;;;4979986;28;87664;-72
2023/02/14 05:05:01;;;;;;;54.30;13.38;;;3.10;97.00;;;;;;4981611;28;88124;-72
2023/02/14 05:07:27;;;;;;;89.40;14.05;;;3.10;96.90;;;;;;4976254;28;87588;-71
2023/02/14 05:09:53;;;;;;;61.28;13.63;;;3.10;96.60;;;;;;4977329;28;87378;-72
2023/02/14 05:12:18;;;;;;;69.57;14.15;;;3.00;96.70;;;;;;4977999;28;87295;-72
2023/02/14 05:14:44;;;;;;;54.05;13.57;;;3.00;96.40;;;;;;4977776;28;88623;-72
2023/02/14 05:17:10;;;;;;;70.75;12.73;;;2.70;97.10;;;;;;4987111;28;87800;-72
2023/02/14 05:19:36;;;;;;;43.22;13.48;;;2.70;97.50;;;;;;4993106;28;87533;-72
2023/02/14 05:22:01;;;;;;;71.47;14.45;;;2.60;98.10;;;;;;4977626;28;87611;-73
2023/02/14 05:24:27;;;;;;;54.42;12.43;;;2.60;97.90;;;;;;4990520;28;87389;-73
2023/02/14 05:26:53;;;;;;;54.90;12.32;;;2.60;97.90;;;;;;4982790;28;88426;-74
2023/02/14 05:29:19;;;;;;;78.97;13.95;;;2.70;97.60;;;;;;4977349;28;87373;-72
2023/02/14 05:31:44;;;;;;;71.35;13.13;;;2.70;97.30;;;;;;4992808;28;86368;-72
2023/02/14 05:34:10;;;;;;;62.05;14.07;;;2.70;97.50;;;;;;4974482;28;87533;-73
2023/02/14 05:36:36;;;;;;;46.10;12.10;;;2.70;97.30;;;;;;4967805;28;88323;-71
2023/02/14 05:39:02;;;;;;;44.90;12.55;;;2.70;97.30;;;;;;4992188;28;88755;-71
2023/02/14 05:41:28;;;;;;;72.88;12.45;;;2.60;97.80;;;;;;4979781;28;88529;-72
2023/02/14 05:43:54;;;;;;;45.78;12.15;;;2.60;98.10;;;;;;4996636;28;87939;-72
2023/02/14 05:46:19;;;;;;;47.75;11.88;;;2.70;98.60;;;;;;4980519;28;87622;-72
2023/02/14 05:48:45;;;;;;;47.70;12.65;;;2.70;98.00;;;;;;4977515;28;87598;-73
2023/02/14 05:51:11;;;;;;;69.30;13.15;;;2.80;97.70;;;;;;4978158;28;87581;-71
2023/02/14 05:53:37;;;;;;;48.30;13.77;;;2.70;97.60;;;;;;4982705;28;88581;-72
2023/02/14 05:56:03;;;;;;;135.45;15.50;;;2.70;98.10;;;;;;4977541;28;88599;-72
2023/02/14 05:58:29;;;;;;;52.53;12.95;;;2.50;98.60;;;;;;4976934;28;87783;-71
2023/02/14 06:00:56;;;;;;;48.38;12.15;;;2.70;98.80;;;;;;4997382;28;87409;-72
2023/02/14 06:03:22;;;;;;;56.55;13.68;;;2.70;98.40;;;;;;4994066;28;89105;-71
2023/02/14 06:05:47;;;;;;;44.80;13.02;;;2.80;98.20;;;;;;4991009;28;89443;-71
2023/02/14 06:08:13;;;;;;;41.25;12.85;;;2.80;98.20;;;;;;4983782;28;89290;-71
2023/02/14 06:10:39;;;;;;;44.22;13.02;;;2.90;98.60;;;;;;4973455;28;89274;-73
2023/02/14 06:13:07;;;;;;;45.30;13.15;;;3.00;98.40;;;;;;4971176;28;88561;-72
2023/02/14 06:15:37;;;;;;;49.40;14.98;;;3.10;97.70;;;;;;4982790;28;88185;-72
2023/02/14 06:18:04;;;;;;;33.65;12.50;;;3.10;97.50;;;;;;4977633;28;87690;-72
2023/02/14 06:20:30;;;;;;;41.78;13.02;;;3.10;97.40;;;;;;4977157;28;86773;-72
2023/02/14 06:22:56;;;;;;;43.72;13.73;;;3.20;96.90;;;;;;4974659;28;88166;-72
2023/02/14 06:25:23;;;;;;;43.47;13.15;;;3.20;96.50;;;;;;4990735;28;87729;-72
2023/02/14 06:27:48;;;;;;;36.13;12.18;;;3.20;96.50;;;;;;4992933;28;88231;-72
2023/02/14 06:30:15;;;;;;;36.72;12.30;;;3.30;95.90;;;;;;4975785;28;89136;-73
2023/02/14 06:32:41;;;;;;;39.67;12.88;;;3.10;95.60;;;;;;4983302;28;87598;-72
2023/02/14 06:35:07;;;;;;;39.85;11.68;;;3.00;96.20;;;;;;4989791;28;88368;-72
2023/02/14 06:37:33;;;;;;;36.15;12.63;;;3.00;96.30;;;;;;4985610;28;87624;-72
2023/02/14 06:40:00;;;;;;;40.55;12.52;;;2.90;96.80;;;;;;4994131;28;87398;-71
2023/02/14 06:42:25;;;;;;;37.70;12.23;;;2.90;96.70;;;;;;4982043;28;88725;-72
2023/02/14 06:44:51;;;;;;;34.30;12.13;;;2.90;96.70;;;;;;4975867;28;88474;-72
2023/02/14 06:47:16;;;;;;;35.40;12.30;;;2.80;96.60;;;;;;4975735;28;87475;-72
2023/02/14 06:49:42;;;;;;;41.08;13.30;;;2.80;96.70;;;;;;4973734;28;87268;-72
2023/02/14 06:52:08;;;;;;;39.47;12.18;;;2.90;96.90;;;;;;4972453;28;88394;-72
2023/02/14 06:54:33;;;;;;;34.38;11.60;;;3.00;96.50;;;;;;4970253;28;88931;-72
2023/02/14 06:56:59;;;;;;;55.38;13.00;;;3.10;96.50;;;;;;4970862;28;87226;-73
2023/02/14 06:59:25;;;;;;;40.78;13.00;;;3.00;96.10;;;;;;4973181;28;88620;-72
2023/02/14 07:01:50;;;;;;;45.15;13.13;;;3.00;96.40;;;;;;4970662;28;88156;-71
2023/02/14 07:04:17;;;;;;;33.00;11.90;;;2.90;96.30;;;;;;4976488;28;87472;-70
2023/02/14 07:06:45;;;;;;;33.47;11.95;;;3.00;96.50;;;;;;4969029;28;87419;-71
2023/02/14 07:09:10;;;;;;;36.47;12.85;;;3.10;96.80;;;;;;4974435;28;87016;-70
2023/02/14 07:11:36;;;;;;;33.47;10.98;;;3.20;95.90;;;;;;4974038;28;87531;-71
2023/02/14 07:14:02;;;;;;;41.22;11.98;;;3.20;95.90;;;;;;4977556;28;87949;-72
2023/02/14 07:16:27;;;;;;;46.53;12.48;;;3.30;95.60;;;;;;4973817;28;88931;-69
2023/02/14 07:18:53;;;;;;;39.55;12.10;;;3.30;95.30;;;;;;4969992;28;87418;-72
2023/02/14 07:21:19;;;;;;;55.90;13.07;;;3.30;95.50;;;;;;4982696;28;88394;-70
2023/02/14 07:23:46;;;;;;;51.70;13.38;;;3.30;95.70;;;;;;4969132;28;87459;-70
2023/02/14 07:26:16;;;;;;;47.58;13.75;;;3.20;95.80;;;;;;4968316;28;87690;-70
2023/02/14 07:28:48;;;;;;;62.78;13.43;;;3.20;96.00;;;;;;4987211;28;87326;-70
2023/02/14 07:31:14;;;;;;;41.90;12.85;;;3.20;95.80;;;;;;4989575;28;88622;-72
2023/02/14 07:33:40;;;;;;;46.08;12.75;;;3.10;96.20;;;;;;4980214;28;88314;-69
2023/02/14 07:36:07;;;;;;;48.72;13.25;;;3.10;96.50;;;;;;4971703;28;87284;-70
2023/02/14 07:38:34;;;;;;;62.30;13.65;;;3.20;96.60;;;;;;4979386;28;87361;-70
2023/02/14 07:40:59;;;;;;;56.08;15.15;;;3.30;96.00;;;;;;4974114;28;90245;-71
2023/02/14 07:43:26;;;;;;;52.30;12.98;;;3.10;96.20;;;;;;4967213;28;88724;-71
2023/02/14 07:45:51;;;;;;;41.70;12.73;;;3.10;96.30;;;;;;4967442;28;89228;-70
2023/02/14 07:48:17;;;;;;;40.50;12.98;;;3.10;96.60;;;;;;4976073;28;87429;-69
2023/02/14 07:50:43;;;;;;;35.40;11.57;;;3.10;96.50;;;;;;4974157;28;88051;-70
2023/02/14 07:53:09;;;;;;;39.47;12.43;;;3.10;96.30;;;;;;4976219;28;88316;-70
2023/02/14 07:55:35;;;;;;;44.78;12.82;;;3.20;96.60;;;;;;4970014;28;87574;-70
2023/02/14 07:58:01;;;;;;;38.17;11.70;;;3.30;95.90;;;;;;4974087;28;87465;-70
2023/02/14 08:00:26;;;;;;;35.70;12.35;;;3.30;95.40;;;;;;4976124;28;87605;-69
2023/02/14 08:02:54;;;;;;;34.83;12.45;;;3.40;95.40;;;;;;4975850;28;88023;-70
2023/02/14 08:05:21;;;;;;;31.85;12.00;;;3.40;95.30;;;;;;4988196;28;88032;-72
2023/02/14 08:07:47;;;;;;;33.33;11.98;;;3.40;95.30;;;;;;4985279;28;89181;-71
2023/02/14 08:10:13;;;;;;;39.55;12.70;;;3.50;94.80;;;;;;4977148;28;88399;-72
2023/02/14 08:18:19;;;;;;;35.72;12.05;;;3.50;94.60;;;;;;4969451;28;87766;-71
2023/02/14 08:20:48;;;;;;;43.83;12.90;;;3.40;94.40;;;;;;4975587;28;87702;-71
2023/02/14 08:23:15;;;;;;;33.72;12.18;;;3.30;94.40;;;;;;4976395;28;87834;-71
2023/02/14 08:25:40;;;;;;;39.15;12.40;;;3.40;94.90;;;;;;4971261;28;87674;-70
2023/02/14 08:28:06;;;;;;;34.25;12.20;;;3.50;94.70;;;;;;4972039;28;88196;-71
2023/02/14 08:30:34;;;;;;;33.70;12.45;;;3.70;94.50;;;;;;4986354;28;89613;-71
2023/02/14 08:33:00;;;;;;;34.08;11.95;;;3.80;93.80;;;;;;4976353;28;89117;-71
2023/02/14 08:35:26;;;;;;;42.10;13.32;;;4.00;93.40;;;;;;4976412;28;87656;-70
2023/02/14 08:37:51;;;;;;;34.95;12.88;;;4.00;93.20;;;;;;4972135;28;87469;-71
2023/02/14 08:40:17;;;;;;;37.92;13.20;;;4.00;93.20;;;;;;4966039;28;88184;-70
2023/02/14 08:42:43;;;;;;;52.13;13.15;;;3.90;92.60;;;;;;4961777;28;88069;-70
2023/02/14 08:45:09;;;;;;;35.85;12.55;;;3.80;92.40;;;;;;4974862;28;87680;-69
2023/02/14 08:47:37;;;;;;;37.20;12.63;;;3.60;92.90;;;;;;4976158;28;86661;-70
2023/02/14 08:50:08;;;;;;;36.05;12.32;;;3.60;93.70;;;;;;4980467;28;87234;-70
2023/02/14 08:52:34;;;;;;;39.72;12.80;;;3.60;92.90;;;;;;4982692;28;88584;-70
2023/02/14 08:55:01;;;;;;;44.80;13.18;;;3.40;93.60;;;;;;4981253;28;88496;-70
2023/02/14 08:57:27;;;;;;;50.55;13.63;;;3.40;94.10;;;;;;4973647;28;87498;-70
2023/02/14 08:59:53;;;;;;;43.15;14.25;;;3.50;93.70;;;;;;4965618;28;88535;-70
2023/02/14 09:02:18;;;;;;;37.67;13.45;;;3.50;93.90;;;;;;4971041;28;88051;-70
2023/02/14 09:04:44;;;;;;;29.98;11.23;;;3.60;94.30;;;;;;4959553;28;87429;-69
2023/02/14 09:07:11;;;;;;;31.67;11.57;;;3.90;92.70;;;;;;4964402;28;87560;-70
2023/02/14 09:09:37;;;;;;;33.05;12.48;;;4.00;92.10;;;;;;4966148;28;88839;-70
2023/02/14 09:12:07;;;;;;;30.02;11.52;;;4.10;92.30;;;;;;4969718;28;87080;-70
2023/02/14 09:14:38;;;;;;;27.95;10.73;;;4.20;92.10;;;;;;4963377;28;88419;-70
2023/02/14 09:17:05;;;;;;;30.95;11.27;;;4.30;91.20;;;;;;4974057;28;87597;-70
2023/02/14 09:19:35;;;;;;;26.83;10.65;;;4.40;91.10;;;;;;4990256;28;92107;-70
2023/02/14 09:22:02;;;;;;;29.88;10.75;;;4.60;90.60;;;;;;4985527;28;88917;-70
2023/02/14 09:24:30;;;;;;;27.40;10.95;;;4.70;90.00;;;;;;4974690;28;87673;-70
2023/02/14 09:26:58;;;;;;;32.25;11.30;;;4.70;90.50;;;;;;4991067;28;87337;-70
2023/02/14 09:29:25;;;;;;;28.40;10.50;;;4.90;90.50;;;;;;4993451;28;89346;-70
2023/02/14 09:31:55;;;;;;;31.02;12.30;;;5.00;90.00;;;;;;4981754;28;88483;-70
2023/02/14 09:34:21;;;;;;;33.88;13.02;;;5.00;89.40;;;;;;4976592;28;87483;-71
2023/02/14 09:36:47;;;;;;;35.03;13.43;;;4.90;90.00;;;;;;4969435;28;86408;-71
2023/02/14 09:39:13;;;;;;;34.22;12.80;;;4.90;89.60;;;;;;4972457;28;89341;-70
2023/02/14 09:42:08;;;;;;;35.63;11.48;;;4.80;90.00;;;;;;4974744;28;87437;-72
2023/02/14 09:44:38;;;;;;;31.90;12.48;;;4.80;89.70;;;;;;4958880;28;88541;-70
2023/02/14 09:47:32;;;;;;;28.00;11.43;;;4.70;90.20;;;;;;4973977;28;87485;-71
2023/02/14 09:49:59;;;;;;;31.63;11.57;;;4.70;90.00;;;;;;4954294;28;87743;-71
2023/02/14 09:52:27;;;;;;;29.63;11.77;;;4.80;90.30;;;;;;4972423;28;87393;-70
2023/02/14 09:54:57;;;;;;;39.70;12.18;;;4.90;89.50;;;;;;4976983;28;87530;-69
2023/02/14 09:57:35;;;;;;;31.77;11.90;;;4.90;89.30;;;;;;4990937;28;88030;-69
2023/02/14 10:00:10;;;;;;;28.35;11.25;;;4.80;89.80;;;;;;4982070;28;87822;-71
2023/02/14 10:03:03;;;;;;;31.00;11.27;;;4.90;89.80;;;;;;4975394;28;88388;-71
2023/02/14 10:05:35;;;;;;;35.28;12.48;;;4.90;90.00;;;;;;4978182;28;87455;-71
2023/02/14 10:08:35;;;;;;;33.67;12.63;;;5.00;89.40;;;;;;4995284;28;87491;-71
2023/02/14 10:11:07;;;;;;;35.85;12.13;;;5.10;88.90;;;;;;4964648;28;88693;-71
2023/02/14 10:13:49;;;;;;;35.00;11.75;;;5.20;89.40;;;;;;4974802;28;89462;-71
2023/02/14 10:16:27;;;;;;;32.90;12.00;;;5.30;87.50;;;;;;4980921;28;87534;-71
2023/02/14 10:19:12;;;;;;;32.75;11.63;;;5.50;87.90;;;;;;4963341;28;87288;-71
2023/02/14 10:21:53;;;;;;;36.95;12.57;;;5.70;87.50;;;;;;4978549;28;88848;-71
2023/02/14 10:24:28;;;;;;;31.95;11.55;;;5.90;86.70;;;;;;4975943;28;88024;-70
2023/02/14 10:27:29;;;;;;;30.10;11.60;;;5.90;86.90;;;;;;4970922;28;87335;-70
2023/02/14 10:29:55;;;;;;;31.65;11.35;;;6.00;85.20;;;;;;4982231;28;86888;-70
2023/02/14 10:32:40;;;;;;;33.38;12.07;;;6.10;86.30;;;;;;4983159;28;87668;-70
2023/02/14 10:35:22;;;;;;;36.05;12.35;;;6.00;86.10;;;;;;4970023;28;87939;-72
2023/02/14 10:37:55;;;;;;;34.90;12.43;;;6.00;87.30;;;;;;4967928;28;88472;-71
2023/02/14 10:41:03;;;;;;;36.55;12.73;;;6.10;86.70;;;;;;4967754;28;87241;-71
2023/02/14 10:43:54;;;;;;;32.03;11.75;;;6.10;85.80;;;;;;4967306;28;88597;-71
2023/02/14 10:46:39;;;;;;;33.75;12.02;;;6.10;84.80;;;;;;4966931;28;87934;-71
2023/02/14 10:49:27;;;;;;;37.85;12.35;;;6.10;85.10;;;;;;4967114;28;87438;-71
2023/02/14 10:52:17;;;;;;;35.15;11.80;;;6.10;85.50;;;;;;4970174;28;88121;-71
2023/02/14 10:54:51;;;;;;;34.85;11.82;;;6.10;84.80;;;;;;4968321;28;89507;-71
2023/02/14 10:57:31;;;;;;;35.47;12.63;;;6.10;86.90;;;;;;4973485;28;87372;-71
2023/02/14 11:00:06;;;;;;;32.63;12.38;;;6.10;86.10;;;;;;4972531;28;87332;-70
2023/02/14 11:02:41;;;;;;;31.17;12.68;;;6.10;84.90;;;;;;4982142;28;89165;-71
2023/02/14 11:05:13;;;;;;;36.50;12.70;;;6.00;85.70;;;;;;4974214;28;89171;-71
2023/02/14 11:07:39;;;;;;;32.55;11.48;;;6.00;86.50;;;;;;4971158;28;88902;-71
2023/02/14 11:10:11;;;;;;;29.75;11.45;;;6.10;85.50;;;;;;4968431;28;87479;-70
2023/02/14 11:12:39;;;;;;;30.95;11.40;;;6.10;85.80;;;;;;4975657;28;88753;-70
2023/02/14 11:15:22;;;;;;;29.50;11.57;;;6.20;86.10;;;;;;4971626;28;87622;-71
2023/02/14 11:17:48;;;;;;;31.85;11.23;;;6.10;86.60;;;;;;4979894;28;87487;-70
2023/02/14 11:20:29;;;;;;;31.20;10.90;;;6.00;85.90;;;;;;4982625;28;87191;-70
2023/02/14 11:22:55;;;;;;;30.67;10.60;;;6.10;86.30;;;;;;4964181;28;86592;-70
2023/02/14 11:25:23;;;;;;;27.92;10.63;;;6.30;86.10;;;;;;4969937;28;88095;-70
2023/02/14 11:28:05;;;;;;;28.42;10.23;;;6.40;85.70;;;;;;4961597;28;87756;-70
2023/02/14 11:30:41;;;;;;;30.77;10.50;;;6.30;85.00;;;;;;4964565;28;89739;-71
2023/02/14 11:33:28;;;;;;;29.40;11.60;;;6.30;85.80;;;;;;4968939;28;87428;-70
2023/02/14 11:35:55;;;;;;;31.23;11.15;;;6.30;85.30;;;;;;4969241;28;88677;-70
2023/02/14 11:38:37;;;;;;;29.23;10.68;;;6.30;85.80;;;;;;4967056;28;87949;-70
2023/02/14 11:41:05;;;;;;;27.90;10.88;;;6.30;84.30;;;;;;4969610;28;87376;-70
2023/02/14 11:43:42;;;;;;;27.55;10.68;;;6.30;84.10;;;;;;4970356;28;89102;-70
2023/02/14 11:46:15;;;;;;;28.25;10.70;;;6.40;84.90;;;;;;4965705;28;88527;-70
2023/02/14 11:49:23;;;;;;;28.92;10.98;;;6.40;83.80;;;;;;4971371;28;87953;-70
2023/02/14 11:51:49;;;;;;;35.85;13.43;;;6.40;83.90;;;;;;4962183;28;87991;-71
2023/02/14 11:54:34;;;;;;;30.48;11.38;;;6.40;84.70;;;;;;4964855;28;87158;-70
2023/02/14 11:57:08;;;;;;;28.58;10.88;;;6.60;84.40;;;;;;4971045;28;89141;-72
2023/02/14 11:59:51;;;;;;;34.38;12.38;;;6.70;85.20;;;;;;4964545;28;89101;-70
2023/02/14 12:02:40;;;;;;;30.58;11.25;;;6.70;83.90;;;;;;4976349;28;87237;-70
2023/02/14 12:05:35;;;;;;;32.78;11.07;;;6.60;83.90;;;;;;4972797;28;87097;-72
2023/02/14 12:08:04;;;;;;;32.45;11.40;;;6.30;84.10;;;;;;4977685;28;87595;-73
2023/02/14 12:10:34;;;;;;;39.05;12.57;;;6.40;85.40;;;;;;4977797;28;87326;-72
2023/02/14 12:13:24;;;;;;;32.00;11.52;;;6.40;84.90;;;;;;4982573;28;87512;-72
2023/02/14 12:15:56;;;;;;;30.23;10.95;;;6.40;84.70;;;;;;4966784;28;86981;-72
2023/02/14 12:19:00;;;;;;;33.35;10.65;;;6.40;85.80;;;;;;4970960;28;88944;-72
2023/02/14 12:21:43;;;;;;;30.90;11.02;;;6.40;85.00;;;;;;4973036;28;88089;-72
2023/02/14 12:24:15;;;;;;;33.08;11.65;;;6.30;84.90;;;;;;4970400;28;88923;-71
2023/02/14 12:26:45;;;;;;;34.78;12.13;;;6.30;86.00;;;;;;4965495;28;87483;-72
2023/02/14 12:29:38;;;;;;;33.88;11.48;;;6.30;86.40;;;;;;4973719;28;90788;-72
2023/02/14 12:32:26;;;;;;;39.53;12.60;;;6.30;87.30;;;;;;4979561;28;87864;-72
2023/02/14 12:35:13;;;;;;;35.20;11.70;;;6.40;86.50;;;;;;4972063;28;87563;-71
2023/02/14 12:37:57;;;;;;;38.78;12.43;;;6.40;86.40;;;;;;4975635;28;87353;-72
2023/02/14 12:41:07;;;;;;;37.60;12.25;;;6.40;85.70;;;;;;4977463;28;89406;-70
2023/02/14 12:43:58;;;;;;;40.17;12.45;;;6.30;86.70;;;;;;4958537;28;89829;-70
2023/02/14 12:46:36;;;;;;;43.50;13.27;;;6.30;87.50;;;;;;4977074;28;87768;-71
2023/02/14 12:49:21;;;;;;;40.50;13.38;;;6.40;87.90;;;;;;4978183;28;87592;-71
2023/02/14 12:52:18;;;;;;;39.58;12.68;;;6.50;87.10;;;;;;4973179;28;90402;-69
2023/02/14 12:55:02;;;;;;;32.83;11.60;;;6.60;87.20;;;;;;4969883;28;89328;-70
2023/02/14 12:57:45;;;;;;;34.63;11.95;;;6.70;86.40;;;;;;4969237;28;88896;-71
2023/02/14 13:00:13;;;;;;;39.53;12.57;;;6.80;85.80;;;;;;4982156;28;87053;-72
2023/02/14 13:03:27;;;;;;;37.58;12.52;;;6.90;86.30;;;;;;4975008;28;88037;-71
2023/02/14 13:06:10;;;;;;;40.05;12.80;;;6.80;85.80;;;;;;4957285;28;88496;-71
2023/02/14 13:08:47;;;;;;;43.47;14.27;;;6.80;85.90;;;;;;4966867;28;87462;-72
2023/02/14 13:11:22;;;;;;;38.65;12.68;;;6.70;85.40;;;;;;4971686;28;86807;-72
2023/02/14 13:14:25;;;;;;;45.15;13.75;;;6.60;86.20;;;;;;4975976;28;87602;-73
2023/02/14 13:16:55;;;;;;;35.85;12.25;;;6.50;87.10;;;;;;4975086;28;88761;-72
2023/02/14 13:19:42;;;;;;;37.45;12.90;;;6.50;86.60;;;;;;4985306;28;88388;-71
2023/02/14 13:22:15;;;;;;;41.30;13.60;;;6.50;86.80;;;;;;4976071;28;87557;-71
2023/02/14 13:24:43;;;;;;;37.70;14.02;;;6.50;87.50;;;;;;4977031;28;88789;-72
2023/02/14 13:27:17;;;;;;;34.25;12.57;;;6.50;87.70;;;;;;4972318;28;87951;-72